sensor_id;sensor_type;location;lat;lon;timestamp;P1;durP1;ratioP1;P2;durP2;ratioP2
1577;SDS011;57623;53.608;10.004;2023-07-30T00:02:03;9.03;;;8.33;;
1577;SDS011;57623;53.608;10.004;2023-07-30T00:04:31;8.80;;;8.10;;
1577;SDS011;57623;53.608;10.004;2023-07-30T00:06:59;8.77;;;8.03;;
1577;SDS011;57623;53.608;10.004;2023-07-30T00:09:27;9.03;;;8.23;;
1577;SDS011;57623;53.608;10.004;2023-07-30T00:11:55;8.00;;;7.40;;
1577;SDS011;57623;53.608;10.004;2023-07-30T00:14:23;7.90;;;7.30;;
1577;SDS011;57623;53.608;10.004;2023-07-30T00:16:52;8.63;;;7.73;;
1577;SDS011;57623;53.608;10.004;2023-07-30T00:19:20;10.80;;;8.40;;
1577;SDS011;57623;53.608;10.004;2023-07-30T00:21:48;7.90;;;7.20;;
1577;SDS011;57623;53.608;10.004;2023-07-30T00:24:16;7.93;;;7.23;;
1577;SDS011;57623;53.608;10.004;2023-07-30T00:26:45;8.17;;;7.37;;
1577;SDS011;57623;53.608;10.004;2023-07-30T00:29:13;8.63;;;7.93;;
1577;SDS011;57623;53.608;10.004;2023-07-30T00:31:41;8.17;;;7.40;;
1577;SDS011;57623;53.608;10.004;2023-07-30T00:34:10;7.47;;;6.83;;
1577;SDS011;57623;53.608;10.004;2023-07-30T00:36:38;7.40;;;6.80;;
1577;SDS011;57623;53.608;10.004;2023-07-30T00:39:06;7.53;;;6.80;;
1577;SDS011;57623;53.608;10.004;2023-07-30T00:41:37;7.43;;;6.83;;
1577;SDS011;57623;53.608;10.004;2023-07-30T00:44:05;5.90;;;5.50;;
1577;SDS011;57623;53.608;10.004;2023-07-30T00:46:33;6.50;;;6.00;;
1577;SDS011;57623;53.608;10.004;2023-07-30T00:49:02;5.93;;;5.50;;
1577;SDS011;57623;53.608;10.004;2023-07-30T00:51:31;5.73;;;5.30;;
1577;SDS011;57623;53.608;10.004;2023-07-30T00:54:01;7.00;;;6.40;;
1577;SDS011;57623;53.608;10.004;2023-07-30T00:56:30;6.30;;;5.80;;
1577;SDS011;57623;53.608;10.004;2023-07-30T00:58:58;6.20;;;5.80;;
1577;SDS011;57623;53.608;10.004;2023-07-30T01:01:26;5.73;;;5.33;;
1577;SDS011;57623;53.608;10.004;2023-07-30T01:03:54;5.90;;;5.40;;
1577;SDS011;57623;53.608;10.004;2023-07-30T01:06:22;6.13;;;5.63;;
1577;SDS011;57623;53.608;10.004;2023-07-30T01:08:51;6.40;;;5.83;;
1577;SDS011;57623;53.608;10.004;2023-07-30T01:11:19;5.70;;;5.30;;
1577;SDS011;57623;53.608;10.004;2023-07-30T01:13:48;6.30;;;5.70;;
1577;SDS011;57623;53.608;10.004;2023-07-30T01:16:16;6.10;;;5.67;;
1577;SDS011;57623;53.608;10.004;2023-07-30T01:18:44;5.50;;;4.97;;
1577;SDS011;57623;53.608;10.004;2023-07-30T01:21:14;6.30;;;5.80;;
1577;SDS011;57623;53.608;10.004;2023-07-30T01:23:42;5.93;;;5.47;;
1577;SDS011;57623;53.608;10.004;2023-07-30T01:26:11;6.00;;;5.50;;
1577;SDS011;57623;53.608;10.004;2023-07-30T01:28:46;6.00;;;5.50;;
1577;SDS011;57623;53.608;10.004;2023-07-30T01:31:18;5.70;;;5.30;;
1577;SDS011;57623;53.608;10.004;2023-07-30T01:33:48;6.50;;;6.00;;
1577;SDS011;57623;53.608;10.004;2023-07-30T01:36:20;5.77;;;5.37;;
1577;SDS011;57623;53.608;10.004;2023-07-30T01:38:48;6.03;;;5.53;;
1577;SDS011;57623;53.608;10.004;2023-07-30T01:41:17;6.40;;;5.90;;
1577;SDS011;57623;53.608;10.004;2023-07-30T01:43:46;6.30;;;5.80;;
1577;SDS011;57623;53.608;10.004;2023-07-30T01:46:14;6.77;;;6.27;;
1577;SDS011;57623;53.608;10.004;2023-07-30T01:48:42;6.33;;;5.80;;
1577;SDS011;57623;53.608;10.004;2023-07-30T01:51:10;7.57;;;6.67;;
1577;SDS011;57623;53.608;10.004;2023-07-30T01:53:39;7.10;;;6.50;;
1577;SDS011;57623;53.608;10.004;2023-07-30T01:56:07;7.53;;;6.87;;
1577;SDS011;57623;53.608;10.004;2023-07-30T01:58:35;7.80;;;7.10;;
1577;SDS011;57623;53.608;10.004;2023-07-30T02:01:03;7.10;;;6.50;;
1577;SDS011;57623;53.608;10.004;2023-07-30T02:03:31;7.87;;;7.17;;
1577;SDS011;57623;53.608;10.004;2023-07-30T02:06:00;7.70;;;7.00;;
1577;SDS011;57623;53.608;10.004;2023-07-30T02:08:28;7.80;;;7.10;;
1577;SDS011;57623;53.608;10.004;2023-07-30T02:10:57;7.17;;;6.57;;
1577;SDS011;57623;53.608;10.004;2023-07-30T02:13:26;7.77;;;7.07;;
1577;SDS011;57623;53.608;10.004;2023-07-30T02:15:54;8.33;;;7.43;;
1577;SDS011;57623;53.608;10.004;2023-07-30T02:18:22;8.67;;;7.97;;
1577;SDS011;57623;53.608;10.004;2023-07-30T02:20:50;7.40;;;6.80;;
1577;SDS011;57623;53.608;10.004;2023-07-30T02:23:18;7.97;;;7.03;;
1577;SDS011;57623;53.608;10.004;2023-07-30T02:25:46;8.30;;;7.70;;
1577;SDS011;57623;53.608;10.004;2023-07-30T02:28:15;7.90;;;7.07;;
1577;SDS011;57623;53.608;10.004;2023-07-30T02:30:43;8.17;;;7.47;;
1577;SDS011;57623;53.608;10.004;2023-07-30T02:33:11;7.80;;;7.20;;
1577;SDS011;57623;53.608;10.004;2023-07-30T02:35:39;9.00;;;8.20;;
1577;SDS011;57623;53.608;10.004;2023-07-30T02:38:07;8.67;;;7.97;;
1577;SDS011;57623;53.608;10.004;2023-07-30T02:40:35;8.47;;;7.77;;
1577;SDS011;57623;53.608;10.004;2023-07-30T02:43:03;8.40;;;7.67;;
1577;SDS011;57623;53.608;10.004;2023-07-30T02:45:33;8.80;;;8.10;;
1577;SDS011;57623;53.608;10.004;2023-07-30T02:48:01;8.40;;;7.70;;
1577;SDS011;57623;53.608;10.004;2023-07-30T02:50:29;9.70;;;8.87;;
1577;SDS011;57623;53.608;10.004;2023-07-30T02:52:57;9.43;;;8.63;;
1577;SDS011;57623;53.608;10.004;2023-07-30T02:55:25;9.63;;;8.83;;
1577;SDS011;57623;53.608;10.004;2023-07-30T02:57:53;9.57;;;8.77;;
1577;SDS011;57623;53.608;10.004;2023-07-30T03:00:21;9.73;;;8.10;;
1577;SDS011;57623;53.608;10.004;2023-07-30T03:02:50;9.90;;;9.10;;
1577;SDS011;57623;53.608;10.004;2023-07-30T03:05:18;9.63;;;8.73;;
1577;SDS011;57623;53.608;10.004;2023-07-30T03:07:46;9.23;;;8.53;;
1577;SDS011;57623;53.608;10.004;2023-07-30T03:10:14;9.93;;;9.03;;
1577;SDS011;57623;53.608;10.004;2023-07-30T03:12:42;9.80;;;8.80;;
1577;SDS011;57623;53.608;10.004;2023-07-30T03:15:10;9.77;;;9.00;;
1577;SDS011;57623;53.608;10.004;2023-07-30T03:17:38;10.77;;;9.87;;
1577;SDS011;57623;53.608;10.004;2023-07-30T03:20:08;9.93;;;9.03;;
1577;SDS011;57623;53.608;10.004;2023-07-30T03:22:36;8.90;;;8.20;;
1577;SDS011;57623;53.608;10.004;2023-07-30T03:25:04;9.90;;;9.10;;
1577;SDS011;57623;53.608;10.004;2023-07-30T03:27:32;10.03;;;9.23;;
1577;SDS011;57623;53.608;10.004;2023-07-30T03:30:00;10.80;;;9.80;;
1577;SDS011;57623;53.608;10.004;2023-07-30T03:32:28;10.20;;;9.30;;
1577;SDS011;57623;53.608;10.004;2023-07-30T03:34:56;10.83;;;9.93;;
1577;SDS011;57623;53.608;10.004;2023-07-30T03:37:26;10.70;;;9.80;;
1577;SDS011;57623;53.608;10.004;2023-07-30T03:39:54;9.77;;;8.97;;
1577;SDS011;57623;53.608;10.004;2023-07-30T03:42:21;10.80;;;9.90;;
1577;SDS011;57623;53.608;10.004;2023-07-30T03:44:49;12.80;;;10.37;;
1577;SDS011;57623;53.608;10.004;2023-07-30T03:47:17;11.37;;;10.27;;
1577;SDS011;57623;53.608;10.004;2023-07-30T03:49:45;11.03;;;10.03;;
1577;SDS011;57623;53.608;10.004;2023-07-30T03:52:13;11.20;;;10.10;;
1577;SDS011;57623;53.608;10.004;2023-07-30T03:54:44;11.30;;;10.27;;
1577;SDS011;57623;53.608;10.004;2023-07-30T03:57:12;11.40;;;10.20;;
1577;SDS011;57623;53.608;10.004;2023-07-30T03:59:40;11.30;;;10.30;;
1577;SDS011;57623;53.608;10.004;2023-07-30T04:02:08;10.97;;;10.07;;
1577;SDS011;57623;53.608;10.004;2023-07-30T04:04:41;10.83;;;9.90;;
1577;SDS011;57623;53.608;10.004;2023-07-30T04:07:10;11.40;;;10.43;;
1577;SDS011;57623;53.608;10.004;2023-07-30T04:09:38;11.37;;;10.47;;
1577;SDS011;57623;53.608;10.004;2023-07-30T04:12:08;10.90;;;9.97;;
1577;SDS011;57623;53.608;10.004;2023-07-30T04:14:36;10.40;;;9.50;;
1577;SDS011;57623;53.608;10.004;2023-07-30T04:17:04;11.03;;;10.03;;
1577;SDS011;57623;53.608;10.004;2023-07-30T04:19:32;10.43;;;9.60;;
1577;SDS011;57623;53.608;10.004;2023-07-30T04:22:00;10.23;;;9.43;;
1577;SDS011;57623;53.608;10.004;2023-07-30T04:24:28;10.27;;;9.30;;
1577;SDS011;57623;53.608;10.004;2023-07-30T04:26:56;10.53;;;9.50;;
1577;SDS011;57623;53.608;10.004;2023-07-30T04:29:25;10.53;;;9.60;;
1577;SDS011;57623;53.608;10.004;2023-07-30T04:31:53;10.30;;;9.37;;
1577;SDS011;57623;53.608;10.004;2023-07-30T04:34:21;10.40;;;9.40;;
1577;SDS011;57623;53.608;10.004;2023-07-30T04:36:49;10.07;;;9.17;;
1577;SDS011;57623;53.608;10.004;2023-07-30T04:39:17;10.53;;;9.43;;
1577;SDS011;57623;53.608;10.004;2023-07-30T04:41:45;9.80;;;9.00;;
1577;SDS011;57623;53.608;10.004;2023-07-30T04:44:13;9.53;;;8.73;;
1577;SDS011;57623;53.608;10.004;2023-07-30T04:46:43;9.57;;;8.47;;
1577;SDS011;57623;53.608;10.004;2023-07-30T04:49:11;10.63;;;9.63;;
1577;SDS011;57623;53.608;10.004;2023-07-30T04:51:39;9.47;;;8.57;;
1577;SDS011;57623;53.608;10.004;2023-07-30T04:54:07;10.60;;;9.33;;
1577;SDS011;57623;53.608;10.004;2023-07-30T04:56:34;8.90;;;8.10;;
1577;SDS011;57623;53.608;10.004;2023-07-30T04:59:03;9.67;;;8.67;;
1577;SDS011;57623;53.608;10.004;2023-07-30T05:01:31;12.73;;;8.97;;
1577;SDS011;57623;53.608;10.004;2023-07-30T05:04:02;10.93;;;9.57;;
1577;SDS011;57623;53.608;10.004;2023-07-30T05:06:30;9.67;;;8.67;;
1577;SDS011;57623;53.608;10.004;2023-07-30T05:08:59;9.93;;;8.87;;
1577;SDS011;57623;53.608;10.004;2023-07-30T05:11:27;9.70;;;8.70;;
1577;SDS011;57623;53.608;10.004;2023-07-30T05:13:55;9.00;;;8.20;;
1577;SDS011;57623;53.608;10.004;2023-07-30T05:16:22;8.57;;;7.87;;
1577;SDS011;57623;53.608;10.004;2023-07-30T05:18:51;8.73;;;7.83;;
1577;SDS011;57623;53.608;10.004;2023-07-30T05:21:20;8.17;;;7.37;;
1577;SDS011;57623;53.608;10.004;2023-07-30T05:23:48;10.53;;;8.57;;
1577;SDS011;57623;53.608;10.004;2023-07-30T05:26:16;10.93;;;8.27;;
1577;SDS011;57623;53.608;10.004;2023-07-30T05:28:44;10.23;;;8.47;;
1577;SDS011;57623;53.608;10.004;2023-07-30T05:31:12;10.10;;;8.30;;
1577;SDS011;57623;53.608;10.004;2023-07-30T05:33:40;8.87;;;7.90;;
1577;SDS011;57623;53.608;10.004;2023-07-30T05:36:08;10.37;;;8.63;;
1577;SDS011;57623;53.608;10.004;2023-07-30T05:38:37;11.13;;;8.13;;
1577;SDS011;57623;53.608;10.004;2023-07-30T05:41:05;11.07;;;7.83;;
1577;SDS011;57623;53.608;10.004;2023-07-30T05:43:33;7.90;;;7.10;;
1577;SDS011;57623;53.608;10.004;2023-07-30T05:46:01;9.30;;;7.83;;
1577;SDS011;57623;53.608;10.004;2023-07-30T05:48:29;9.97;;;8.20;;
1577;SDS011;57623;53.608;10.004;2023-07-30T05:50:57;11.50;;;7.70;;
1577;SDS011;57623;53.608;10.004;2023-07-30T05:53:25;13.23;;;8.13;;
1577;SDS011;57623;53.608;10.004;2023-07-30T05:55:55;8.47;;;7.40;;
1577;SDS011;57623;53.608;10.004;2023-07-30T05:58:22;9.60;;;8.43;;
1577;SDS011;57623;53.608;10.004;2023-07-30T06:00:50;9.93;;;8.70;;
1577;SDS011;57623;53.608;10.004;2023-07-30T06:03:18;10.80;;;8.20;;
1577;SDS011;57623;53.608;10.004;2023-07-30T06:05:47;10.70;;;8.57;;
1577;SDS011;57623;53.608;10.004;2023-07-30T06:08:14;11.73;;;8.13;;
1577;SDS011;57623;53.608;10.004;2023-07-30T06:10:42;9.43;;;8.53;;
1577;SDS011;57623;53.608;10.004;2023-07-30T06:13:12;9.90;;;8.90;;
1577;SDS011;57623;53.608;10.004;2023-07-30T06:15:40;10.80;;;8.20;;
1577;SDS011;57623;53.608;10.004;2023-07-30T06:18:08;9.40;;;7.77;;
1577;SDS011;57623;53.608;10.004;2023-07-30T06:20:36;12.00;;;8.47;;
1577;SDS011;57623;53.608;10.004;2023-07-30T06:23:04;11.60;;;8.13;;
1577;SDS011;57623;53.608;10.004;2023-07-30T06:25:32;10.33;;;8.60;;
1577;SDS011;57623;53.608;10.004;2023-07-30T06:28:00;8.50;;;7.70;;
1577;SDS011;57623;53.608;10.004;2023-07-30T06:30:29;8.77;;;7.90;;
1577;SDS011;57623;53.608;10.004;2023-07-30T06:32:57;14.00;;;8.40;;
1577;SDS011;57623;53.608;10.004;2023-07-30T06:35:25;14.00;;;8.70;;
1577;SDS011;57623;53.608;10.004;2023-07-30T06:37:53;10.90;;;8.80;;
1577;SDS011;57623;53.608;10.004;2023-07-30T06:40:21;10.20;;;7.80;;
1577;SDS011;57623;53.608;10.004;2023-07-30T06:42:49;11.23;;;9.10;;
1577;SDS011;57623;53.608;10.004;2023-07-30T06:45:18;12.03;;;9.60;;
1577;SDS011;57623;53.608;10.004;2023-07-30T06:47:47;13.23;;;11.43;;
1577;SDS011;57623;53.608;10.004;2023-07-30T06:50:15;12.50;;;11.20;;
1577;SDS011;57623;53.608;10.004;2023-07-30T06:52:43;12.60;;;11.30;;
1577;SDS011;57623;53.608;10.004;2023-07-30T06:55:11;13.93;;;12.13;;
1577;SDS011;57623;53.608;10.004;2023-07-30T06:57:39;13.90;;;12.33;;
1577;SDS011;57623;53.608;10.004;2023-07-30T07:00:07;14.57;;;13.07;;
1577;SDS011;57623;53.608;10.004;2023-07-30T07:02:36;14.47;;;12.97;;
1577;SDS011;57623;53.608;10.004;2023-07-30T07:05:06;15.17;;;13.57;;
1577;SDS011;57623;53.608;10.004;2023-07-30T07:07:34;15.50;;;13.97;;
1577;SDS011;57623;53.608;10.004;2023-07-30T07:10:02;14.93;;;13.23;;
1577;SDS011;57623;53.608;10.004;2023-07-30T07:12:30;16.83;;;13.20;;
1577;SDS011;57623;53.608;10.004;2023-07-30T07:14:58;16.90;;;12.70;;
1577;SDS011;57623;53.608;10.004;2023-07-30T07:17:28;16.50;;;13.27;;
1577;SDS011;57623;53.608;10.004;2023-07-30T07:19:56;16.43;;;13.10;;
1577;SDS011;57623;53.608;10.004;2023-07-30T07:22:25;15.63;;;13.03;;
1577;SDS011;57623;53.608;10.004;2023-07-30T07:24:53;14.53;;;12.67;;
1577;SDS011;57623;53.608;10.004;2023-07-30T07:27:21;16.13;;;12.00;;
1577;SDS011;57623;53.608;10.004;2023-07-30T07:29:50;16.97;;;12.53;;
1577;SDS011;57623;53.608;10.004;2023-07-30T07:32:18;14.07;;;12.27;;
1577;SDS011;57623;53.608;10.004;2023-07-30T07:34:46;17.43;;;12.53;;
1577;SDS011;57623;53.608;10.004;2023-07-30T07:37:15;17.53;;;13.03;;
1577;SDS011;57623;53.608;10.004;2023-07-30T07:39:46;15.57;;;11.57;;
1577;SDS011;57623;53.608;10.004;2023-07-30T07:42:14;15.10;;;12.20;;
1577;SDS011;57623;53.608;10.004;2023-07-30T07:44:42;13.37;;;12.00;;
1577;SDS011;57623;53.608;10.004;2023-07-30T07:47:12;17.30;;;11.83;;
1577;SDS011;57623;53.608;10.004;2023-07-30T07:49:40;14.87;;;11.30;;
1577;SDS011;57623;53.608;10.004;2023-07-30T07:52:08;16.37;;;11.13;;
1577;SDS011;57623;53.608;10.004;2023-07-30T07:54:37;12.20;;;11.00;;
1577;SDS011;57623;53.608;10.004;2023-07-30T07:57:06;14.80;;;11.30;;
1577;SDS011;57623;53.608;10.004;2023-07-30T07:59:35;12.83;;;11.50;;
1577;SDS011;57623;53.608;10.004;2023-07-30T08:02:03;13.93;;;11.70;;
1577;SDS011;57623;53.608;10.004;2023-07-30T08:04:31;12.20;;;10.50;;
1577;SDS011;57623;53.608;10.004;2023-07-30T08:06:59;13.00;;;11.10;;
1577;SDS011;57623;53.608;10.004;2023-07-30T08:09:29;14.60;;;10.10;;
1577;SDS011;57623;53.608;10.004;2023-07-30T08:11:58;11.43;;;10.20;;
1577;SDS011;57623;53.608;10.004;2023-07-30T08:14:28;12.23;;;9.40;;
1577;SDS011;57623;53.608;10.004;2023-07-30T08:16:56;10.93;;;9.70;;
1577;SDS011;57623;53.608;10.004;2023-07-30T08:19:25;11.47;;;9.63;;
1577;SDS011;57623;53.608;10.004;2023-07-30T08:21:53;14.20;;;9.97;;
1577;SDS011;57623;53.608;10.004;2023-07-30T08:24:22;12.47;;;9.57;;
1577;SDS011;57623;53.608;10.004;2023-07-30T08:26:50;14.47;;;9.87;;
1577;SDS011;57623;53.608;10.004;2023-07-30T08:29:18;11.03;;;9.93;;
1577;SDS011;57623;53.608;10.004;2023-07-30T08:31:48;11.73;;;10.03;;
1577;SDS011;57623;53.608;10.004;2023-07-30T08:34:16;12.10;;;10.43;;
1577;SDS011;57623;53.608;10.004;2023-07-30T08:36:44;13.40;;;9.90;;
1577;SDS011;57623;53.608;10.004;2023-07-30T08:39:12;12.07;;;9.60;;
1577;SDS011;57623;53.608;10.004;2023-07-30T08:41:39;12.13;;;8.90;;
1577;SDS011;57623;53.608;10.004;2023-07-30T08:44:08;10.60;;;8.93;;
1577;SDS011;57623;53.608;10.004;2023-07-30T08:46:37;8.77;;;7.87;;
1577;SDS011;57623;53.608;10.004;2023-07-30T08:49:06;10.77;;;8.57;;
1577;SDS011;57623;53.608;10.004;2023-07-30T08:51:35;11.60;;;5.83;;
1577;SDS011;57623;53.608;10.004;2023-07-30T08:54:05;11.23;;;5.87;;
1577;SDS011;57623;53.608;10.004;2023-07-30T08:56:34;12.80;;;6.43;;
1577;SDS011;57623;53.608;10.004;2023-07-30T08:59:02;10.10;;;5.33;;
1577;SDS011;57623;53.608;10.004;2023-07-30T09:01:34;7.27;;;4.70;;
1577;SDS011;57623;53.608;10.004;2023-07-30T09:04:07;11.00;;;5.30;;
1577;SDS011;57623;53.608;10.004;2023-07-30T09:06:36;10.03;;;5.30;;
1577;SDS011;57623;53.608;10.004;2023-07-30T09:09:05;15.57;;;6.30;;
1577;SDS011;57623;53.608;10.004;2023-07-30T09:11:35;7.87;;;4.70;;
1577;SDS011;57623;53.608;10.004;2023-07-30T09:14:05;10.67;;;5.40;;
1577;SDS011;57623;53.608;10.004;2023-07-30T09:16:33;8.20;;;4.80;;
1577;SDS011;57623;53.608;10.004;2023-07-30T09:19:01;11.20;;;5.07;;
1577;SDS011;57623;53.608;10.004;2023-07-30T09:21:31;9.73;;;5.20;;
1577;SDS011;57623;53.608;10.004;2023-07-30T09:24:01;10.03;;;5.00;;
1577;SDS011;57623;53.608;10.004;2023-07-30T09:26:42;11.20;;;5.20;;
1577;SDS011;57623;53.608;10.004;2023-07-30T09:29:13;7.83;;;4.60;;
1577;SDS011;57623;53.608;10.004;2023-07-30T09:31:48;11.40;;;4.70;;
1577;SDS011;57623;53.608;10.004;2023-07-30T09:34:18;6.43;;;4.50;;
1577;SDS011;57623;53.608;10.004;2023-07-30T09:36:48;11.67;;;4.40;;
1577;SDS011;57623;53.608;10.004;2023-07-30T09:39:19;5.03;;;4.13;;
1577;SDS011;57623;53.608;10.004;2023-07-30T09:41:48;6.40;;;4.67;;
1577;SDS011;57623;53.608;10.004;2023-07-30T09:44:17;6.03;;;4.27;;
1577;SDS011;57623;53.608;10.004;2023-07-30T09:46:47;5.10;;;3.97;;
1577;SDS011;57623;53.608;10.004;2023-07-30T09:49:16;6.60;;;4.90;;
1577;SDS011;57623;53.608;10.004;2023-07-30T09:51:45;6.63;;;4.40;;
1577;SDS011;57623;53.608;10.004;2023-07-30T09:54:15;6.80;;;4.57;;
1577;SDS011;57623;53.608;10.004;2023-07-30T09:56:43;8.63;;;4.73;;
1577;SDS011;57623;53.608;10.004;2023-07-30T09:59:11;8.43;;;5.93;;
1577;SDS011;57623;53.608;10.004;2023-07-30T10:01:41;6.37;;;4.17;;
1577;SDS011;57623;53.608;10.004;2023-07-30T10:04:11;8.33;;;4.40;;
1577;SDS011;57623;53.608;10.004;2023-07-30T10:06:40;8.67;;;4.60;;
1577;SDS011;57623;53.608;10.004;2023-07-30T10:09:11;9.43;;;4.80;;
1577;SDS011;57623;53.608;10.004;2023-07-30T10:11:42;6.80;;;4.70;;
1577;SDS011;57623;53.608;10.004;2023-07-30T10:14:12;10.07;;;5.50;;
1577;SDS011;57623;53.608;10.004;2023-07-30T10:16:49;7.10;;;4.70;;
1577;SDS011;57623;53.608;10.004;2023-07-30T10:19:18;7.27;;;5.53;;
1577;SDS011;57623;53.608;10.004;2023-07-30T10:21:49;6.67;;;5.93;;
1577;SDS011;57623;53.608;10.004;2023-07-30T10:24:18;7.47;;;5.97;;
1577;SDS011;57623;53.608;10.004;2023-07-30T10:26:47;8.93;;;6.43;;
1577;SDS011;57623;53.608;10.004;2023-07-30T10:29:16;7.67;;;5.93;;
1577;SDS011;57623;53.608;10.004;2023-07-30T10:31:48;8.47;;;6.10;;
1577;SDS011;57623;53.608;10.004;2023-07-30T10:34:19;6.63;;;5.90;;
1577;SDS011;57623;53.608;10.004;2023-07-30T10:36:49;9.20;;;5.30;;
1577;SDS011;57623;53.608;10.004;2023-07-30T10:39:18;9.27;;;5.37;;
1577;SDS011;57623;53.608;10.004;2023-07-30T10:41:49;8.20;;;6.23;;
1577;SDS011;57623;53.608;10.004;2023-07-30T10:44:21;8.60;;;5.23;;
1577;SDS011;57623;53.608;10.004;2023-07-30T10:46:50;6.77;;;6.07;;
1577;SDS011;57623;53.608;10.004;2023-07-30T10:49:19;7.40;;;5.80;;
1577;SDS011;57623;53.608;10.004;2023-07-30T10:51:47;6.23;;;5.30;;
1577;SDS011;57623;53.608;10.004;2023-07-30T10:54:16;6.27;;;5.20;;
1577;SDS011;57623;53.608;10.004;2023-07-30T10:56:44;8.20;;;4.97;;
1577;SDS011;57623;53.608;10.004;2023-07-30T10:59:13;7.07;;;4.93;;
1577;SDS011;57623;53.608;10.004;2023-07-30T11:01:42;5.43;;;4.20;;
1577;SDS011;57623;53.608;10.004;2023-07-30T11:04:12;5.43;;;4.10;;
1577;SDS011;57623;53.608;10.004;2023-07-30T11:06:44;6.60;;;4.53;;
1577;SDS011;57623;53.608;10.004;2023-07-30T11:09:17;4.60;;;3.77;;
1577;SDS011;57623;53.608;10.004;2023-07-30T11:11:47;5.73;;;3.80;;
1577;SDS011;57623;53.608;10.004;2023-07-30T11:14:17;6.93;;;3.23;;
1577;SDS011;57623;53.608;10.004;2023-07-30T11:16:48;5.77;;;3.60;;
1577;SDS011;57623;53.608;10.004;2023-07-30T11:19:17;4.57;;;3.90;;
1577;SDS011;57623;53.608;10.004;2023-07-30T11:21:46;4.87;;;3.70;;
1577;SDS011;57623;53.608;10.004;2023-07-30T11:24:17;6.57;;;3.87;;
1577;SDS011;57623;53.608;10.004;2023-07-30T11:26:45;5.67;;;3.10;;
1577;SDS011;57623;53.608;10.004;2023-07-30T11:29:26;4.60;;;3.40;;
1577;SDS011;57623;53.608;10.004;2023-07-30T11:31:55;6.03;;;3.53;;
1577;SDS011;57623;53.608;10.004;2023-07-30T11:34:25;5.33;;;3.60;;
1577;SDS011;57623;53.608;10.004;2023-07-30T11:36:54;5.30;;;3.10;;
1577;SDS011;57623;53.608;10.004;2023-07-30T11:39:23;4.60;;;3.57;;
1577;SDS011;57623;53.608;10.004;2023-07-30T11:41:52;6.20;;;3.47;;
1577;SDS011;57623;53.608;10.004;2023-07-30T11:44:31;5.30;;;3.40;;
1577;SDS011;57623;53.608;10.004;2023-07-30T11:46:59;4.43;;;3.40;;
1577;SDS011;57623;53.608;10.004;2023-07-30T11:49:30;3.93;;;3.63;;
1577;SDS011;57623;53.608;10.004;2023-07-30T11:52:04;3.77;;;2.90;;
1577;SDS011;57623;53.608;10.004;2023-07-30T11:54:34;5.03;;;3.37;;
1577;SDS011;57623;53.608;10.004;2023-07-30T11:57:02;7.13;;;3.00;;
1577;SDS011;57623;53.608;10.004;2023-07-30T11:59:31;3.83;;;2.90;;
1577;SDS011;57623;53.608;10.004;2023-07-30T12:01:59;4.40;;;3.03;;
1577;SDS011;57623;53.608;10.004;2023-07-30T12:04:30;4.30;;;2.23;;
1577;SDS011;57623;53.608;10.004;2023-07-30T12:06:58;5.23;;;3.00;;
1577;SDS011;57623;53.608;10.004;2023-07-30T12:09:28;5.03;;;2.90;;
1577;SDS011;57623;53.608;10.004;2023-07-30T12:12:02;3.73;;;2.57;;
1577;SDS011;57623;53.608;10.004;2023-07-30T12:14:43;3.20;;;2.60;;
1577;SDS011;57623;53.608;10.004;2023-07-30T12:17:19;4.90;;;2.20;;
1577;SDS011;57623;53.608;10.004;2023-07-30T12:19:47;6.23;;;3.07;;
1577;SDS011;57623;53.608;10.004;2023-07-30T12:22:15;5.60;;;3.00;;
1577;SDS011;57623;53.608;10.004;2023-07-30T12:24:43;5.97;;;2.73;;
1577;SDS011;57623;53.608;10.004;2023-07-30T12:27:11;3.97;;;2.60;;
1577;SDS011;57623;53.608;10.004;2023-07-30T12:29:39;3.30;;;2.30;;
1577;SDS011;57623;53.608;10.004;2023-07-30T12:32:10;2.87;;;2.63;;
1577;SDS011;57623;53.608;10.004;2023-07-30T12:34:38;4.93;;;2.67;;
1577;SDS011;57623;53.608;10.004;2023-07-30T12:37:06;2.87;;;2.37;;
1577;SDS011;57623;53.608;10.004;2023-07-30T12:39:35;6.20;;;2.50;;
1577;SDS011;57623;53.608;10.004;2023-07-30T12:42:03;4.10;;;2.90;;
1577;SDS011;57623;53.608;10.004;2023-07-30T12:44:32;3.30;;;2.83;;
1577;SDS011;57623;53.608;10.004;2023-07-30T12:46:59;4.20;;;2.73;;
1577;SDS011;57623;53.608;10.004;2023-07-30T12:49:29;3.87;;;2.40;;
1577;SDS011;57623;53.608;10.004;2023-07-30T12:51:57;4.40;;;2.80;;
1577;SDS011;57623;53.608;10.004;2023-07-30T12:54:25;3.90;;;2.43;;
1577;SDS011;57623;53.608;10.004;2023-07-30T12:56:53;4.13;;;2.90;;
1577;SDS011;57623;53.608;10.004;2023-07-30T12:59:21;5.00;;;2.60;;
1577;SDS011;57623;53.608;10.004;2023-07-30T13:01:49;4.53;;;2.50;;
1577;SDS011;57623;53.608;10.004;2023-07-30T13:04:17;3.90;;;2.87;;
1577;SDS011;57623;53.608;10.004;2023-07-30T13:06:48;4.33;;;3.03;;
1577;SDS011;57623;53.608;10.004;2023-07-30T13:09:16;5.27;;;2.77;;
1577;SDS011;57623;53.608;10.004;2023-07-30T13:11:44;3.43;;;3.03;;
1577;SDS011;57623;53.608;10.004;2023-07-30T13:14:12;5.73;;;3.17;;
1577;SDS011;57623;53.608;10.004;2023-07-30T13:16:40;3.60;;;2.80;;
1577;SDS011;57623;53.608;10.004;2023-07-30T13:19:08;5.57;;;2.77;;
1577;SDS011;57623;53.608;10.004;2023-07-30T13:21:36;4.13;;;2.13;;
1577;SDS011;57623;53.608;10.004;2023-07-30T13:24:06;3.03;;;2.03;;
1577;SDS011;57623;53.608;10.004;2023-07-30T13:26:34;2.80;;;2.43;;
1577;SDS011;57623;53.608;10.004;2023-07-30T13:29:04;3.00;;;2.20;;
1577;SDS011;57623;53.608;10.004;2023-07-30T13:31:32;3.00;;;2.10;;
1577;SDS011;57623;53.608;10.004;2023-07-30T13:34:00;2.63;;;1.80;;
1577;SDS011;57623;53.608;10.004;2023-07-30T13:36:29;2.73;;;2.00;;
1577;SDS011;57623;53.608;10.004;2023-07-30T13:38:57;2.37;;;2.17;;
1577;SDS011;57623;53.608;10.004;2023-07-30T13:41:26;4.23;;;2.20;;
1577;SDS011;57623;53.608;10.004;2023-07-30T13:43:54;4.13;;;2.27;;
1577;SDS011;57623;53.608;10.004;2023-07-30T13:46:22;3.37;;;2.03;;
1577;SDS011;57623;53.608;10.004;2023-07-30T13:48:50;2.77;;;2.17;;
1577;SDS011;57623;53.608;10.004;2023-07-30T13:51:18;2.40;;;1.93;;
1577;SDS011;57623;53.608;10.004;2023-07-30T13:53:46;2.83;;;2.20;;
1577;SDS011;57623;53.608;10.004;2023-07-30T13:56:14;3.00;;;2.27;;
1577;SDS011;57623;53.608;10.004;2023-07-30T13:58:43;2.40;;;2.07;;
1577;SDS011;57623;53.608;10.004;2023-07-30T14:01:11;3.53;;;2.27;;
1577;SDS011;57623;53.608;10.004;2023-07-30T14:03:41;2.83;;;2.10;;
1577;SDS011;57623;53.608;10.004;2023-07-30T14:06:11;2.33;;;2.10;;
1577;SDS011;57623;53.608;10.004;2023-07-30T14:08:39;2.73;;;2.03;;
1577;SDS011;57623;53.608;10.004;2023-07-30T14:11:07;2.80;;;2.27;;
1577;SDS011;57623;53.608;10.004;2023-07-30T14:13:35;3.50;;;2.50;;
1577;SDS011;57623;53.608;10.004;2023-07-30T14:16:04;3.43;;;2.57;;
1577;SDS011;57623;53.608;10.004;2023-07-30T14:18:33;2.53;;;1.87;;
1577;SDS011;57623;53.608;10.004;2023-07-30T14:21:01;3.73;;;2.40;;
1577;SDS011;57623;53.608;10.004;2023-07-30T14:23:29;2.83;;;2.03;;
1577;SDS011;57623;53.608;10.004;2023-07-30T14:25:58;1.97;;;1.77;;
1577;SDS011;57623;53.608;10.004;2023-07-30T14:28:25;2.70;;;1.67;;
1577;SDS011;57623;53.608;10.004;2023-07-30T14:30:54;1.90;;;1.50;;
1577;SDS011;57623;53.608;10.004;2023-07-30T14:33:23;2.43;;;1.87;;
1577;SDS011;57623;53.608;10.004;2023-07-30T14:35:51;2.07;;;1.60;;
1577;SDS011;57623;53.608;10.004;2023-07-30T14:38:19;3.10;;;2.23;;
1577;SDS011;57623;53.608;10.004;2023-07-30T14:40:47;3.03;;;1.80;;
1577;SDS011;57623;53.608;10.004;2023-07-30T14:43:15;2.27;;;1.53;;
1577;SDS011;57623;53.608;10.004;2023-07-30T14:45:43;1.50;;;1.40;;
1577;SDS011;57623;53.608;10.004;2023-07-30T14:48:11;1.63;;;1.40;;
1577;SDS011;57623;53.608;10.004;2023-07-30T14:50:41;2.80;;;1.60;;